createdAt,value
2023-01-06T00:02:15.918Z,100.00
2023-01-06T00:04:48.000Z,100.00
2023-01-06T00:07:30.813Z,100.00
2023-01-06T00:10:02.930Z,100.00
2023-01-06T00:12:33.392Z,100.00
2023-01-06T00:15:06.745Z,100.00
2023-01-06T00:17:36.850Z,100.00
2023-01-06T00:20:05.986Z,100.00
2023-01-06T00:22:36.305Z,100.00
2023-01-06T00:25:07.253Z,100.00
2023-01-06T00:27:36.380Z,100.00
2023-01-06T00:30:05.992Z,99.94
2023-01-06T00:32:34.536Z,99.88
2023-01-06T00:35:03.324Z,99.86
2023-01-06T00:37:33.872Z,99.94
2023-01-06T00:40:02.786Z,100.00
2023-01-06T00:42:33.771Z,100.00
2023-01-06T00:45:04.489Z,100.00
2023-01-06T00:47:32.692Z,100.00
2023-01-06T00:50:00.865Z,100.00
2023-01-06T00:52:31.661Z,100.00
2023-01-06T00:55:00.614Z,100.00
2023-01-06T00:57:29.174Z,100.00
2023-01-06T00:59:57.196Z,100.00
2023-01-06T01:02:25.133Z,100.00
2023-01-06T01:04:54.641Z,100.00
2023-01-06T01:07:23.035Z,100.00
2023-01-06T01:09:51.404Z,100.00
2023-01-06T01:12:21.474Z,100.00
2023-01-06T01:14:54.192Z,100.00
2023-01-06T01:17:24.838Z,100.00
2023-01-06T01:19:54.610Z,100.00
2023-01-06T01:22:26.311Z,100.00
2023-01-06T01:24:54.263Z,100.00
2023-01-06T01:27:24.714Z,100.00
2023-01-06T01:29:55.306Z,100.00
2023-01-06T01:32:23.401Z,99.86
2023-01-06T01:34:52.841Z,99.98
2023-01-06T01:37:21.461Z,100.00
2023-01-06T01:39:49.496Z,100.00
2023-01-06T01:42:20.098Z,100.00
2023-01-06T01:44:57.774Z,100.00
2023-01-06T01:47:46.685Z,100.00
2023-01-06T01:50:23.024Z,100.00
2023-01-06T01:52:53.477Z,100.00
2023-01-06T01:55:21.419Z,100.00
2023-01-06T01:58:09.693Z,100.00
2023-01-06T02:00:40.460Z,99.82
2023-01-06T02:03:09.245Z,100.00
2023-01-06T02:05:42.190Z,100.00
2023-01-06T02:08:35.714Z,99.69
2023-01-06T02:11:04.442Z,100.00
2023-01-06T02:13:36.221Z,100.00
2023-01-06T02:16:21.139Z,100.00
2023-01-06T02:19:19.750Z,100.00
2023-01-06T02:22:01.179Z,100.00
2023-01-06T02:24:35.931Z,100.00
2023-01-06T02:27:36.676Z,100.00
2023-01-06T02:30:32.276Z,100.00
2023-01-06T02:33:25.362Z,100.00
2023-01-06T02:36:19.148Z,100.00
2023-01-06T02:39:00.198Z,100.00
2023-01-06T02:41:45.275Z,100.00
2023-01-06T02:44:27.036Z,100.00
2023-01-06T02:47:19.815Z,100.00
2023-01-06T02:49:57.923Z,100.00
2023-01-06T02:52:32.045Z,99.58
2023-01-06T02:55:26.379Z,99.98
2023-01-06T02:58:13.573Z,99.96
2023-01-06T03:00:51.469Z,100.00
2023-01-06T03:03:21.332Z,100.00
2023-01-06T03:05:52.204Z,100.00
2023-01-06T03:08:22.616Z,100.00
2023-01-06T03:10:50.447Z,100.00
2023-01-06T03:13:23.945Z,100.00
2023-01-06T03:15:55.740Z,100.00
2023-01-06T03:18:25.136Z,100.00
2023-01-06T03:20:53.827Z,100.00
2023-01-06T03:23:21.964Z,100.00
2023-01-06T03:25:52.724Z,100.00
2023-01-06T03:28:26.910Z,100.00
2023-01-06T03:31:20.179Z,100.00
2023-01-06T03:34:18.052Z,100.00
2023-01-06T03:37:03.910Z,100.00
2023-01-06T03:39:40.629Z,100.00
2023-01-06T03:42:53.264Z,100.00
2023-01-06T03:45:40.414Z,100.00
2023-01-06T03:48:14.523Z,100.00
2023-01-06T03:50:51.225Z,100.00
2023-01-06T03:53:40.467Z,100.00
2023-01-06T03:56:29.950Z,100.00
2023-01-06T03:58:59.240Z,100.00
2023-01-06T04:01:27.590Z,100.00
2023-01-06T04:03:56.592Z,100.00
2023-01-06T04:06:28.075Z,100.00
2023-01-06T04:08:56.059Z,100.00
2023-01-06T04:11:53.561Z,100.00
2023-01-06T04:14:22.144Z,100.00
2023-01-06T04:16:51.834Z,100.00
2023-01-06T04:19:20.120Z,100.00
2023-01-06T04:21:52.856Z,100.00
2023-01-06T04:24:21.575Z,100.00
2023-01-06T04:26:49.690Z,100.00
2023-01-06T04:29:17.893Z,100.00
2023-01-06T04:31:45.917Z,100.00
2023-01-06T04:34:14.036Z,100.00
2023-01-06T04:36:43.934Z,100.00
2023-01-06T04:39:13.880Z,100.00
2023-01-06T04:41:42.450Z,100.00
2023-01-06T04:44:15.474Z,100.00
2023-01-06T04:46:43.252Z,100.00
2023-01-06T04:49:11.247Z,100.00
2023-01-06T04:51:39.567Z,100.00
2023-01-06T04:54:07.335Z,100.00
2023-01-06T04:57:05.243Z,100.00
2023-01-06T04:59:40.770Z,100.00
2023-01-06T05:02:11.073Z,100.00
2023-01-06T05:04:47.331Z,100.00
2023-01-06T05:07:16.633Z,100.00
2023-01-06T05:09:46.772Z,100.00
2023-01-06T05:12:15.148Z,100.00
2023-01-06T05:14:43.453Z,100.00
2023-01-06T05:17:12.117Z,100.00
2023-01-06T05:19:43.747Z,100.00
2023-01-06T05:22:14.493Z,100.00
2023-01-06T05:24:51.208Z,100.00
2023-01-06T05:27:26.559Z,100.00
2023-01-06T05:29:55.032Z,100.00
2023-01-06T05:32:22.769Z,100.00
2023-01-06T05:34:51.060Z,100.00
2023-01-06T05:37:18.820Z,100.00
2023-01-06T05:39:46.699Z,100.00
2023-01-06T05:42:17.845Z,100.00
2023-01-06T05:44:46.541Z,100.00
2023-01-06T05:47:15.384Z,100.00
2023-01-06T05:49:43.215Z,100.00
2023-01-06T05:52:11.719Z,100.00
2023-01-06T05:54:40.485Z,100.00
2023-01-06T05:57:11.824Z,100.00
2023-01-06T06:00:10.377Z,100.00
2023-01-06T06:02:42.942Z,100.00
2023-01-06T06:05:13.640Z,100.00
2023-01-06T06:07:41.409Z,100.00
2023-01-06T06:10:10.994Z,100.00
2023-01-06T06:12:38.605Z,100.00
2023-01-06T06:15:06.938Z,100.00
2023-01-06T06:17:35.380Z,100.00
2023-01-06T06:20:03.803Z,100.00
2023-01-06T06:22:31.895Z,100.00
2023-01-06T06:25:00.017Z,100.00
2023-01-06T06:27:28.344Z,100.00
2023-01-06T06:29:56.099Z,100.00
2023-01-06T06:32:23.964Z,100.00
2023-01-06T06:34:51.894Z,100.00
2023-01-06T06:37:19.879Z,100.00
2023-01-06T06:39:47.833Z,100.00
2023-01-06T06:42:18.070Z,100.00
2023-01-06T06:44:46.002Z,100.00
2023-01-06T06:47:14.985Z,100.00
2023-01-06T06:49:43.183Z,100.00
2023-01-06T06:52:10.735Z,100.00
2023-01-06T06:54:38.556Z,100.00
2023-01-06T06:57:06.856Z,100.00
2023-01-06T06:59:35.457Z,100.00
2023-01-06T07:02:03.267Z,100.00
2023-01-06T07:04:33.103Z,100.00
2023-01-06T07:07:00.943Z,100.00
2023-01-06T07:09:28.913Z,100.00
2023-01-06T07:11:56.731Z,100.00
2023-01-06T07:14:25.023Z,100.00
2023-01-06T07:16:53.082Z,100.00
2023-01-06T07:19:20.977Z,100.00
2023-01-06T07:21:48.949Z,100.00
2023-01-06T07:24:16.608Z,100.00
2023-01-06T07:26:44.585Z,100.00
2023-01-06T07:29:12.128Z,100.00
2023-01-06T07:31:39.788Z,100.00
2023-01-06T07:34:07.544Z,100.00
2023-01-06T07:36:35.435Z,100.00
2023-01-06T07:39:03.853Z,100.00
2023-01-06T07:41:32.540Z,100.00
2023-01-06T07:44:01.214Z,100.00
2023-01-06T07:46:29.049Z,100.00
2023-01-06T07:48:56.902Z,100.00
2023-01-06T07:51:24.610Z,100.00
2023-01-06T07:53:52.391Z,100.00
2023-01-06T07:56:21.843Z,100.00
2023-01-06T07:58:50.307Z,100.00
2023-01-06T08:01:17.976Z,100.00
2023-01-06T08:03:48.751Z,100.00
2023-01-06T08:06:16.422Z,100.00
2023-01-06T08:08:44.178Z,100.00
2023-01-06T08:11:13.934Z,100.00
2023-01-06T08:13:41.542Z,100.00
2023-01-06T08:16:09.434Z,100.00
2023-01-06T08:18:37.605Z,100.00
2023-01-06T08:21:09.895Z,100.00
2023-01-06T08:23:39.236Z,100.00
2023-01-06T08:26:11.809Z,100.00
2023-01-06T08:28:41.464Z,100.00
2023-01-06T08:31:10.450Z,100.00
2023-01-06T08:33:38.128Z,100.00
2023-01-06T08:36:06.924Z,100.00
2023-01-06T08:38:36.933Z,100.00
2023-01-06T08:41:04.772Z,100.00
2023-01-06T08:43:32.588Z,100.00
2023-01-06T08:46:05.394Z,100.00
2023-01-06T08:48:33.539Z,100.00
2023-01-06T08:51:09.301Z,100.00
2023-01-06T08:53:36.926Z,100.00
2023-01-06T08:56:05.726Z,100.00
2023-01-06T08:58:33.519Z,100.00
2023-01-06T09:01:01.153Z,100.00
2023-01-06T09:03:28.994Z,100.00
2023-01-06T09:05:57.048Z,100.00
2023-01-06T09:08:25.121Z,100.00
2023-01-06T09:10:52.791Z,100.00
2023-01-06T09:13:20.429Z,100.00
2023-01-06T09:15:49.256Z,100.00
2023-01-06T09:18:18.229Z,100.00
2023-01-06T09:20:47.169Z,100.00
2023-01-06T09:23:14.922Z,100.00
2023-01-06T09:25:42.648Z,100.00
2023-01-06T09:28:10.763Z,100.00
2023-01-06T09:30:38.477Z,100.00
2023-01-06T09:33:06.196Z,100.00
2023-01-06T09:35:34.157Z,100.00
2023-01-06T09:38:01.735Z,99.95
2023-01-06T09:40:35.787Z,96.71
2023-01-06T09:43:12.098Z,97.46
2023-01-06T09:45:48.683Z,96.51
2023-01-06T09:48:19.383Z,96.96
2023-01-06T09:50:48.880Z,98.23
2023-01-06T09:53:22.566Z,97.63
2023-01-06T09:55:52.711Z,98.63
2023-01-06T09:59:05.701Z,98.19
2023-01-06T10:01:40.550Z,93.78
2023-01-06T10:04:18.097Z,94.39
2023-01-06T10:07:13.970Z,95.02
2023-01-06T10:09:57.862Z,94.95
2023-01-06T10:12:51.916Z,96.91
2023-01-06T10:15:40.848Z,96.34
2023-01-06T10:18:23.597Z,96.53
2023-01-06T10:21:09.087Z,97.69
2023-01-06T10:23:46.370Z,98.03
2023-01-06T10:26:17.253Z,98.20
2023-01-06T10:28:48.344Z,97.78
2023-01-06T10:31:16.732Z,95.67
2023-01-06T10:33:48.295Z,94.79
2023-01-06T10:36:16.534Z,94.97
2023-01-06T10:38:45.891Z,94.90
2023-01-06T10:41:27.347Z,95.42
2023-01-06T10:43:54.847Z,94.04
2023-01-06T10:46:23.563Z,92.77
2023-01-06T10:48:52.273Z,91.55
2023-01-06T10:51:35.141Z,91.27
2023-01-06T10:54:13.927Z,93.07
2023-01-06T10:56:47.213Z,92.61
2023-01-06T10:59:14.883Z,93.62
2023-01-06T11:01:53.567Z,93.75
2023-01-06T11:04:21.755Z,91.00
2023-01-06T11:06:51.910Z,90.48
2023-01-06T11:09:39.773Z,91.37
2023-01-06T11:12:13.081Z,92.89
2023-01-06T11:14:41.493Z,93.22
2023-01-06T11:17:15.776Z,93.16
2023-01-06T11:19:45.045Z,93.09
2023-01-06T11:22:36.095Z,93.62
2023-01-06T11:25:22.213Z,94.00
2023-01-06T11:28:17.643Z,92.85
2023-01-06T11:31:00.494Z,91.91
2023-01-06T11:34:24.270Z,92.71
2023-01-06T11:36:52.066Z,92.87
2023-01-06T11:39:25.003Z,93.34
2023-01-06T11:41:53.562Z,93.60
2023-01-06T11:44:30.488Z,93.25
2023-01-06T11:47:01.215Z,93.18
2023-01-06T11:49:39.508Z,93.68
2023-01-06T11:52:19.252Z,93.94
2023-01-06T11:55:00.689Z,94.18
2023-01-06T11:57:34.539Z,93.33
2023-01-06T12:00:17.212Z,94.39
2023-01-06T12:03:07.745Z,94.07
2023-01-06T12:05:39.295Z,94.81
2023-01-06T12:08:21.814Z,95.02
2023-01-06T12:10:59.017Z,95.82
2023-01-06T12:13:27.693Z,95.82
2023-01-06T12:16:05.341Z,94.90
2023-01-06T12:18:34.087Z,95.19
2023-01-06T12:21:01.768Z,94.11
2023-01-06T12:23:37.336Z,93.20
2023-01-06T12:26:17.078Z,93.47
2023-01-06T12:28:46.060Z,91.82
2023-01-06T12:31:24.061Z,90.30
2023-01-06T12:34:13.265Z,90.99
2023-01-06T12:36:56.373Z,90.79
2023-01-06T12:39:33.228Z,92.71
2023-01-06T12:42:08.279Z,91.83
2023-01-06T12:44:39.074Z,92.78
2023-01-06T12:47:53.091Z,91.47
2023-01-06T12:50:40.855Z,90.65
2023-01-06T12:53:20.877Z,90.13
2023-01-06T12:56:06.776Z,87.81
2023-01-06T12:58:44.210Z,87.17
2023-01-06T13:01:19.356Z,87.20
2023-01-06T13:04:07.993Z,86.98
2023-01-06T13:06:50.467Z,88.09
2023-01-06T13:09:41.710Z,87.62
2023-01-06T13:12:38.993Z,87.98
2023-01-06T13:15:18.486Z,87.68
2023-01-06T13:18:11.888Z,86.28
2023-01-06T13:21:01.857Z,86.80
2023-01-06T13:23:51.332Z,87.46
2023-01-06T13:26:24.044Z,87.25
2023-01-06T13:29:13.108Z,88.15
2023-01-06T13:31:55.896Z,88.89
2023-01-06T13:34:44.612Z,89.07
2023-01-06T13:38:10.730Z,87.80
2023-01-06T13:40:39.161Z,87.16
2023-01-06T13:43:23.186Z,87.63
2023-01-06T13:45:56.646Z,87.89
2023-01-06T13:48:26.516Z,87.49
2023-01-06T13:50:54.237Z,86.42
2023-01-06T13:53:23.123Z,87.82
2023-01-06T13:56:13.728Z,87.55
2023-01-06T13:58:45.504Z,87.23
2023-01-06T14:01:15.908Z,87.09
2023-01-06T14:03:43.679Z,87.28
2023-01-06T14:06:14.851Z,86.29
2023-01-06T14:08:57.233Z,86.33
2023-01-06T14:11:39.957Z,86.38
2023-01-06T14:14:19.267Z,87.28
2023-01-06T14:16:49.240Z,87.65
2023-01-06T14:19:19.722Z,87.67
2023-01-06T14:21:48.513Z,87.64
2023-01-06T14:24:33.250Z,88.12
2023-01-06T14:27:05.091Z,87.91
2023-01-06T14:29:39.756Z,87.85
2023-01-06T14:32:07.959Z,86.28
2023-01-06T14:34:36.367Z,86.04
2023-01-06T14:37:04.289Z,85.05
2023-01-06T14:39:31.846Z,83.85
2023-01-06T14:42:08.804Z,83.22
2023-01-06T14:44:44.599Z,83.06
2023-01-06T14:47:29.232Z,82.75
2023-01-06T14:49:58.536Z,83.77
2023-01-06T14:52:36.301Z,83.68
2023-01-06T14:55:08.684Z,83.91
2023-01-06T14:57:37.351Z,82.81
2023-01-06T15:00:27.172Z,79.52
2023-01-06T15:03:05.736Z,80.00
2023-01-06T15:05:35.048Z,79.82
2023-01-06T15:08:11.964Z,80.76
2023-01-06T15:10:50.196Z,81.10
2023-01-06T15:13:24.413Z,81.49
2023-01-06T15:16:01.867Z,81.93
2023-01-06T15:18:29.969Z,81.93
2023-01-06T15:20:58.252Z,80.63
2023-01-06T15:23:25.870Z,81.12
2023-01-06T15:25:54.129Z,79.02
2023-01-06T15:28:31.619Z,78.76
2023-01-06T15:30:59.842Z,79.21
2023-01-06T15:33:39.745Z,79.95
2023-01-06T15:36:07.977Z,77.96
2023-01-06T15:38:39.422Z,78.08
2023-01-06T15:41:26.973Z,78.19
2023-01-06T15:43:54.508Z,76.80
2023-01-06T15:46:22.146Z,75.24
2023-01-06T15:48:49.810Z,75.39
2023-01-06T15:51:19.182Z,73.49
2023-01-06T15:53:48.052Z,74.93
2023-01-06T15:56:20.329Z,74.18
2023-01-06T15:58:49.072Z,74.41
2023-01-06T16:01:18.293Z,75.16
2023-01-06T16:03:49.720Z,75.11
2023-01-06T16:06:34.065Z,75.02
2023-01-06T16:09:38.015Z,75.84
2023-01-06T16:12:21.159Z,76.61
2023-01-06T16:14:50.918Z,73.56
2023-01-06T16:17:25.534Z,72.89
2023-01-06T16:20:00.724Z,71.97
2023-01-06T16:22:33.508Z,71.75
2023-01-06T16:25:38.963Z,71.12
2023-01-06T16:28:13.293Z,70.64
2023-01-06T16:30:41.909Z,70.96
2023-01-06T16:33:33.778Z,70.54
2023-01-06T16:36:01.467Z,70.43
2023-01-06T16:38:29.034Z,69.38
2023-01-06T16:40:56.552Z,70.06
2023-01-06T16:43:24.101Z,71.09
2023-01-06T16:45:52.197Z,71.35
2023-01-06T16:48:19.755Z,70.08
2023-01-06T16:50:50.728Z,69.77
2023-01-06T16:53:20.835Z,69.82
2023-01-06T16:55:57.858Z,70.17
2023-01-06T16:58:27.753Z,71.34
2023-01-06T17:00:56.643Z,71.18
2023-01-06T17:03:26.146Z,70.33
2023-01-06T17:05:53.848Z,70.37
2023-01-06T17:08:35.233Z,70.08
2023-01-06T17:11:10.639Z,71.01
2023-01-06T17:13:45.952Z,71.82
2023-01-06T17:16:16.045Z,72.69
2023-01-06T17:18:52.110Z,72.31
2023-01-06T17:21:22.666Z,71.72
2023-01-06T17:23:55.026Z,71.72
2023-01-06T17:26:24.196Z,72.46
2023-01-06T17:28:53.299Z,72.86
2023-01-06T17:31:40.891Z,73.34
2023-01-06T17:34:11.733Z,74.36
2023-01-06T17:36:40.160Z,75.05
2023-01-06T17:39:16.214Z,75.99
2023-01-06T17:41:43.866Z,75.98
2023-01-06T17:44:14.897Z,76.86
2023-01-06T17:46:42.668Z,75.41
2023-01-06T17:49:19.751Z,75.10
2023-01-06T17:51:47.733Z,73.30
2023-01-06T17:54:37.539Z,71.00
2023-01-06T17:57:31.441Z,68.94
2023-01-06T17:59:58.993Z,69.23
2023-01-06T18:03:13.232Z,69.92
2023-01-06T18:05:41.579Z,69.82
2023-01-06T18:08:09.033Z,69.65
2023-01-06T18:10:39.504Z,68.42
2023-01-06T18:13:24.402Z,68.37
2023-01-06T18:16:01.212Z,69.13
2023-01-06T18:18:35.838Z,69.80
2023-01-06T18:21:26.681Z,70.40
2023-01-06T18:23:54.849Z,70.44
2023-01-06T18:26:28.467Z,70.32
2023-01-06T18:29:17.187Z,71.18
2023-01-06T18:31:46.185Z,71.76
2023-01-06T18:34:39.982Z,72.53
2023-01-06T18:37:07.753Z,73.35
2023-01-06T18:39:46.820Z,73.88
2023-01-06T18:42:27.666Z,73.74
2023-01-06T18:45:12.369Z,71.77
2023-01-06T18:47:43.597Z,71.65
2023-01-06T18:50:30.656Z,73.19
2023-01-06T18:53:32.544Z,72.42
2023-01-06T18:56:14.823Z,71.92
2023-01-06T18:58:47.635Z,71.70
2023-01-06T19:01:17.023Z,73.21
2023-01-06T19:03:50.431Z,73.61
2023-01-06T19:06:18.079Z,71.94
2023-01-06T19:08:47.475Z,72.01
2023-01-06T19:11:19.728Z,72.66
2023-01-06T19:13:47.914Z,73.38
2023-01-06T19:16:36.999Z,73.64
2023-01-06T19:19:11.074Z,73.49
2023-01-06T19:21:38.937Z,74.18
2023-01-06T19:24:26.688Z,74.77
2023-01-06T19:26:58.352Z,74.73
2023-01-06T19:29:35.347Z,75.21
2023-01-06T19:32:12.772Z,75.39
2023-01-06T19:34:40.482Z,74.66
2023-01-06T19:37:17.538Z,74.59
2023-01-06T19:39:48.881Z,75.08
2023-01-06T19:42:27.395Z,75.79
2023-01-06T19:44:58.139Z,77.01
2023-01-06T19:47:31.562Z,77.51
2023-01-06T19:50:01.019Z,77.93
2023-01-06T19:52:40.789Z,78.72
2023-01-06T19:55:14.461Z,78.77
2023-01-06T19:57:51.659Z,74.45
2023-01-06T20:00:26.489Z,73.20
2023-01-06T20:02:57.655Z,73.24
2023-01-06T20:05:26.440Z,73.56
2023-01-06T20:07:54.963Z,73.94
2023-01-06T20:10:22.736Z,73.56
2023-01-06T20:12:50.396Z,72.38
2023-01-06T20:15:18.103Z,73.19
2023-01-06T20:17:45.724Z,74.53
2023-01-06T20:20:13.411Z,74.82
2023-01-06T20:22:40.978Z,75.31
2023-01-06T20:25:08.779Z,76.02
2023-01-06T20:27:38.533Z,75.24
2023-01-06T20:30:06.651Z,75.10
2023-01-06T20:32:34.457Z,75.00
2023-01-06T20:35:02.225Z,74.68
2023-01-06T20:37:30.125Z,75.09
2023-01-06T20:39:57.863Z,75.02
2023-01-06T20:42:25.518Z,75.35
2023-01-06T20:44:53.237Z,76.07
2023-01-06T20:47:20.784Z,76.08
2023-01-06T20:49:48.696Z,76.13
2023-01-06T20:52:16.330Z,76.50
2023-01-06T20:54:44.099Z,76.52
2023-01-06T20:57:11.651Z,76.56
2023-01-06T20:59:39.357Z,74.99
2023-01-06T21:02:07.038Z,74.09
2023-01-06T21:04:35.140Z,71.11
2023-01-06T21:07:02.916Z,68.86
2023-01-06T21:09:34.849Z,69.47
2023-01-06T21:12:02.752Z,70.45
2023-01-06T21:14:32.429Z,72.04
2023-01-06T21:17:00.251Z,72.89
2023-01-06T21:19:27.893Z,74.02
2023-01-06T21:21:55.545Z,74.66
2023-01-06T21:24:23.889Z,74.81
2023-01-06T21:26:51.709Z,75.30
2023-01-06T21:29:20.660Z,76.01
2023-01-06T21:31:48.372Z,76.66
2023-01-06T21:34:15.984Z,76.92
2023-01-06T21:36:44.292Z,75.95
2023-01-06T21:39:12.653Z,76.07
2023-01-06T21:44:54.166Z,75.30
2023-01-06T21:47:21.980Z,74.75
2023-01-06T21:49:49.556Z,74.66
2023-01-06T21:52:17.814Z,75.47
2023-01-06T21:54:47.400Z,76.24
2023-01-06T21:57:15.113Z,76.00
2023-01-06T21:59:42.796Z,76.24
2023-01-06T22:02:10.539Z,75.96
2023-01-06T22:04:38.198Z,75.98
2023-01-06T22:07:06.985Z,76.04
2023-01-06T22:09:35.291Z,76.76
2023-01-06T22:12:03.054Z,77.28
2023-01-06T22:14:31.306Z,77.40
2023-01-06T22:17:00.657Z,76.61
2023-01-06T22:19:29.266Z,76.97
2023-01-06T22:21:56.952Z,76.26
2023-01-06T22:24:24.476Z,75.52
2023-01-06T22:26:52.588Z,75.77
2023-01-06T22:29:20.218Z,76.01
2023-01-06T22:31:47.869Z,76.33
2023-01-06T22:34:17.227Z,75.43
2023-01-06T22:36:45.121Z,75.88
2023-01-06T22:39:12.724Z,75.77
2023-01-06T22:41:40.949Z,76.02
2023-01-06T22:44:08.688Z,76.55
2023-01-06T22:46:36.268Z,77.42
2023-01-06T22:49:03.870Z,76.62
2023-01-06T22:51:32.312Z,76.94
2023-01-06T22:54:00.045Z,76.88
2023-01-06T22:56:27.836Z,77.77
2023-01-06T22:58:55.630Z,77.61
2023-01-06T23:01:23.317Z,77.38
2023-01-06T23:03:51.141Z,78.36
2023-01-06T23:06:18.844Z,78.71
2023-01-06T23:08:59.257Z,79.08
2023-01-06T23:11:28.209Z,79.26
2023-01-06T23:14:32.809Z,79.62
2023-01-06T23:17:00.377Z,79.86
2023-01-06T23:19:27.955Z,79.27
2023-01-06T23:21:55.745Z,77.00
2023-01-06T23:24:23.335Z,76.05
2023-01-06T23:26:51.610Z,75.52
2023-01-06T23:29:19.121Z,75.80
2023-01-06T23:31:46.972Z,75.37
2023-01-06T23:34:16.588Z,75.71
2023-01-06T23:36:44.275Z,75.78
2023-01-06T23:39:14.013Z,75.30
2023-01-06T23:41:41.726Z,74.67
2023-01-06T23:44:17.753Z,75.37
2023-01-06T23:46:45.687Z,75.90
2023-01-06T23:49:15.837Z,75.78
2023-01-06T23:51:43.699Z,76.32
2023-01-06T23:54:11.534Z,76.13
2023-01-06T23:56:39.274Z,76.33
2023-01-06T23:59:07.785Z,76.72
